createdAt,value
2018-12-21T00:00:19.584Z,100571.31
2018-12-21T00:02:50.511Z,100563.45
2018-12-21T00:05:21.442Z,100565.22
2018-12-21T00:07:52.433Z,100559.60
2018-12-21T00:10:22.630Z,100557.13
2018-12-21T00:12:52.859Z,100551.09
2018-12-21T00:15:23.597Z,100555.83
2018-12-21T00:17:53.817Z,100546.59
2018-12-21T00:20:24.196Z,100549.45
2018-12-21T00:22:54.509Z,100545.41
2018-12-21T00:25:25.787Z,100546.17
2018-12-21T00:27:56.369Z,100534.69
2018-12-21T00:30:26.315Z,100533.17
2018-12-21T00:33:02.648Z,100532.69
2018-12-21T00:35:37.925Z,100538.25
2018-12-21T00:38:13.783Z,100523.98
2018-12-21T00:40:49.975Z,100530.31
2018-12-21T00:43:28.054Z,100529.94
2018-12-21T00:46:04.443Z,100529.28
2018-12-21T00:48:34.665Z,100524.02
2018-12-21T00:51:05.260Z,100524.44
2018-12-21T00:53:35.308Z,100522.61
2018-12-21T00:56:05.557Z,100523.84
2018-12-21T00:58:36.472Z,100521.03
2018-12-21T01:01:07.026Z,100522.27
2018-12-21T01:03:38.571Z,100519.11
2018-12-21T01:06:09.414Z,100524.13
2018-12-21T01:08:39.605Z,100528.94
2018-12-21T01:11:09.930Z,100522.29
2018-12-21T01:13:40.104Z,100521.98
2018-12-21T01:16:10.406Z,100526.14
2018-12-21T01:18:40.853Z,100525.42
2018-12-21T01:21:12.698Z,100526.42
2018-12-21T01:23:43.303Z,100523.95
2018-12-21T01:26:13.405Z,100528.28
2018-12-21T01:28:43.655Z,100519.63
2018-12-21T01:31:13.854Z,100520.92
2018-12-21T01:33:44.722Z,100527.94
2018-12-21T01:36:15.667Z,100530.09
2018-12-21T01:38:45.782Z,100530.86
2018-12-21T01:41:16.020Z,100530.17
2018-12-21T01:43:46.822Z,100529.15
2018-12-21T01:46:17.107Z,100527.28
2018-12-21T01:48:49.095Z,100518.49
2018-12-21T01:51:19.353Z,100523.58
2018-12-21T01:53:50.158Z,100523.84
2018-12-21T01:56:20.922Z,100523.87
2018-12-21T01:58:51.257Z,100523.87
2018-12-21T02:01:21.274Z,100519.77
2018-12-21T02:03:51.471Z,100524.27
2018-12-21T02:06:22.060Z,100523.22
2018-12-21T02:08:53.034Z,100519.43
2018-12-21T02:11:23.322Z,100520.17
2018-12-21T02:13:53.396Z,100522.30
2018-12-21T02:16:24.533Z,100525.59
2018-12-21T02:18:55.347Z,100526.28
2018-12-21T02:21:26.108Z,100524.65
2018-12-21T02:23:56.149Z,100525.53
2018-12-21T02:26:26.246Z,100529.11
2018-12-21T02:28:56.748Z,100526.70
2018-12-21T02:31:26.965Z,100526.08
2018-12-21T02:33:57.340Z,100527.79
2018-12-21T02:36:28.047Z,100518.13
2018-12-21T02:38:58.127Z,100523.58
2018-12-21T02:41:28.282Z,100513.80
2018-12-21T02:43:58.859Z,100516.59
2018-12-21T02:46:29.577Z,100506.61
2018-12-21T02:48:59.846Z,100500.91
2018-12-21T02:51:30.635Z,100496.23
2018-12-21T02:54:01.502Z,100499.10
2018-12-21T02:56:32.336Z,100493.77
2018-12-21T02:59:02.382Z,100488.73
2018-12-21T03:01:33.893Z,100482.52
2018-12-21T03:04:03.949Z,100484.30
2018-12-21T03:06:35.016Z,100469.35
2018-12-21T03:09:08.552Z,100472.00
2018-12-21T03:11:39.405Z,100468.84
2018-12-21T03:14:09.536Z,100457.20
2018-12-21T03:16:40.290Z,100452.05
2018-12-21T03:19:11.074Z,100452.56
2018-12-21T03:21:42.043Z,100447.17
2018-12-21T03:24:13.004Z,100440.09
2018-12-21T03:26:43.281Z,100435.00
2018-12-21T03:29:13.374Z,100429.58
2018-12-21T03:31:43.450Z,100425.96
2018-12-21T03:34:13.687Z,100423.98
2018-12-21T03:36:44.554Z,100416.36
2018-12-21T03:39:14.678Z,100410.00
2018-12-21T03:41:44.704Z,100406.95
2018-12-21T03:44:14.998Z,100405.48
2018-12-21T03:46:46.564Z,100401.51
2018-12-21T03:49:16.827Z,100395.19
2018-12-21T03:51:46.971Z,100389.05
2018-12-21T03:54:18.490Z,100392.16
2018-12-21T03:56:49.232Z,100382.26
2018-12-21T03:59:19.258Z,100383.73
2018-12-21T04:01:51.082Z,100374.14
2018-12-21T04:04:22.046Z,100361.27
2018-12-21T04:06:52.147Z,100358.41
2018-12-21T04:09:22.805Z,100356.07
2018-12-21T04:11:53.281Z,100354.77
2018-12-21T04:14:23.408Z,100342.48
2018-12-21T04:16:54.008Z,100341.20
2018-12-21T04:19:25.459Z,100338.85
2018-12-21T04:21:55.616Z,100336.86
2018-12-21T04:24:26.323Z,100338.68
2018-12-21T04:26:56.346Z,100337.16
2018-12-21T04:29:26.392Z,100338.39
2018-12-21T04:31:57.235Z,100340.22
2018-12-21T04:34:29.331Z,100335.22
2018-12-21T04:36:59.558Z,100330.78
2018-12-21T04:39:29.706Z,100329.50
2018-12-21T04:42:00.786Z,100323.58
2018-12-21T04:44:31.440Z,100325.98
2018-12-21T04:47:02.122Z,100325.33
2018-12-21T04:49:32.244Z,100309.83
2018-12-21T04:52:03.063Z,100309.25
2018-12-21T04:54:33.143Z,100317.14
2018-12-21T04:57:04.763Z,100308.48
2018-12-21T04:59:34.844Z,100313.28
2018-12-21T05:02:05.130Z,100294.88
2018-12-21T05:04:35.857Z,100291.23
2018-12-21T05:07:12.217Z,100288.78
2018-12-21T05:09:40.274Z,100274.04
2018-12-21T05:12:10.589Z,100263.64
2018-12-21T05:14:41.589Z,100262.75
2018-12-21T05:17:12.627Z,100255.39
2018-12-21T05:19:59.031Z,100250.09
2018-12-21T05:22:29.042Z,100245.44
2018-12-21T05:24:59.787Z,100236.87
2018-12-21T05:27:32.160Z,100233.84
2018-12-21T05:30:02.981Z,100236.48
2018-12-21T05:32:33.235Z,100240.50
2018-12-21T05:35:03.603Z,100232.63
2018-12-21T05:37:34.303Z,100232.41
2018-12-21T05:40:06.062Z,100233.23
2018-12-21T05:42:36.270Z,100227.25
2018-12-21T05:45:07.859Z,100225.45
2018-12-21T05:47:38.558Z,100221.09
2018-12-21T05:50:08.872Z,100214.25
2018-12-21T05:52:38.971Z,100218.67
2018-12-21T05:55:09.184Z,100204.97
2018-12-21T05:57:39.478Z,100217.23
2018-12-21T06:00:11.861Z,100209.38
2018-12-21T06:02:42.326Z,100197.99
2018-12-21T06:05:12.524Z,100197.91
2018-12-21T06:07:42.687Z,100194.14
2018-12-21T06:10:12.802Z,100198.47
2018-12-21T06:12:43.802Z,100188.63
2018-12-21T06:15:14.017Z,100182.86
2018-12-21T06:17:44.853Z,100175.90
2018-12-21T06:20:15.402Z,100163.98
2018-12-21T06:22:47.163Z,100163.36
2018-12-21T06:25:17.621Z,100160.05
2018-12-21T06:27:47.755Z,100156.09
2018-12-21T06:30:18.435Z,100153.19
2018-12-21T06:32:49.093Z,100147.45
2018-12-21T06:35:19.131Z,100140.58
2018-12-21T06:37:49.348Z,100130.90
2018-12-21T06:40:19.990Z,100131.15
2018-12-21T06:42:50.891Z,100120.88
2018-12-21T06:45:21.715Z,100120.99
2018-12-21T06:47:51.955Z,100116.86
2018-12-21T06:50:22.524Z,100121.95
2018-12-21T06:52:52.697Z,100120.93
2018-12-21T06:55:22.720Z,100116.80
2018-12-21T06:57:53.773Z,100116.00
2018-12-21T07:00:23.934Z,100115.80
2018-12-21T07:02:54.166Z,100104.14
2018-12-21T07:05:24.340Z,100103.72
2018-12-21T07:07:54.587Z,100094.12
2018-12-21T07:10:25.159Z,100089.70
2018-12-21T07:12:55.937Z,100086.08
2018-12-21T07:15:26.714Z,100079.11
2018-12-21T07:17:56.851Z,100074.42
2018-12-21T07:20:28.293Z,100064.80
2018-12-21T07:22:59.202Z,100061.87
2018-12-21T07:25:31.181Z,100049.94
2018-12-21T07:28:03.053Z,100047.13
2018-12-21T07:30:33.089Z,100044.80
2018-12-21T07:33:03.844Z,100036.42
2018-12-21T07:35:33.970Z,100036.94
2018-12-21T07:38:04.654Z,100023.48
2018-12-21T07:40:35.945Z,100019.14
2018-12-21T07:43:06.046Z,100012.70
2018-12-21T07:45:36.872Z,100009.98
2018-12-21T07:48:07.039Z,100000.13
2018-12-21T07:50:37.019Z,99996.69
2018-12-21T07:53:07.630Z,100001.05
2018-12-21T07:55:38.584Z,99995.33
2018-12-21T07:58:09.643Z,99992.42
2018-12-21T08:00:40.174Z,99987.76
2018-12-21T08:03:10.496Z,99985.03
2018-12-21T08:05:40.678Z,99987.52
2018-12-21T08:08:11.501Z,99981.62
2018-12-21T08:10:41.622Z,99963.20
2018-12-21T08:13:13.566Z,99966.95
2018-12-21T08:15:43.534Z,99963.91
2018-12-21T08:18:13.874Z,99957.31
2018-12-21T08:20:44.016Z,99959.00
2018-12-21T08:23:14.754Z,99966.27
2018-12-21T08:25:45.335Z,99961.42
2018-12-21T08:28:15.531Z,99955.05
2018-12-21T08:30:46.329Z,99949.38
2018-12-21T08:33:16.369Z,99950.55
2018-12-21T08:35:47.132Z,99944.10
2018-12-21T08:38:17.798Z,99931.74
2018-12-21T08:40:48.523Z,99924.41
2018-12-21T08:43:19.572Z,99919.09
2018-12-21T08:45:49.690Z,99910.69
2018-12-21T08:48:20.208Z,99908.34
2018-12-21T08:50:50.930Z,99906.23
2018-12-21T08:53:21.182Z,99902.52
2018-12-21T08:55:51.815Z,99904.04
2018-12-21T08:58:23.075Z,99895.98
2018-12-21T09:00:53.271Z,99896.81
2018-12-21T09:03:23.332Z,99892.08
2018-12-21T09:05:54.036Z,99881.25
2018-12-21T09:08:25.225Z,99884.03
2018-12-21T09:10:55.375Z,99875.74
2018-12-21T09:13:25.966Z,99860.30
2018-12-21T09:15:56.586Z,99862.56
2018-12-21T09:18:26.737Z,99861.86
2018-12-21T09:20:56.965Z,99851.89
2018-12-21T09:23:27.048Z,99853.11
2018-12-21T09:25:58.225Z,99849.63
2018-12-21T09:28:42.779Z,99842.44
2018-12-21T09:31:12.789Z,99840.84
2018-12-21T09:33:42.916Z,99822.94
2018-12-21T09:36:13.974Z,99818.60
2018-12-21T09:38:44.781Z,99825.67
2018-12-21T09:41:14.930Z,99817.47
2018-12-21T09:43:45.597Z,99798.20
2018-12-21T09:46:15.840Z,99787.22
2018-12-21T09:48:46.084Z,99769.70
2018-12-21T09:51:16.638Z,99767.57
2018-12-21T09:53:46.793Z,99744.37
2018-12-21T09:56:16.977Z,99734.27
2018-12-21T09:58:48.050Z,99740.93
2018-12-21T10:01:18.302Z,99719.23
2018-12-21T10:03:49.318Z,99721.27
2018-12-21T10:06:19.982Z,99717.02
2018-12-21T10:08:50.116Z,99708.61
2018-12-21T10:11:20.409Z,99704.50
2018-12-21T10:13:50.730Z,99695.77
2018-12-21T10:16:20.838Z,99678.31
2018-12-21T10:18:51.043Z,99667.44
2018-12-21T10:21:21.773Z,99659.17
2018-12-21T10:23:53.279Z,99655.69
2018-12-21T10:26:24.003Z,99643.26
2018-12-21T10:28:54.632Z,99630.11
2018-12-21T10:31:26.412Z,99623.05
2018-12-21T10:33:58.069Z,99613.11
2018-12-21T10:36:28.242Z,99602.23
2018-12-21T10:38:59.035Z,99599.78
2018-12-21T10:41:29.370Z,99584.69
2018-12-21T10:43:59.447Z,99577.25
2018-12-21T10:46:29.687Z,99569.30
2018-12-21T10:49:00.467Z,99561.87
2018-12-21T10:51:30.663Z,99558.00
2018-12-21T10:54:00.690Z,99546.17
2018-12-21T10:56:31.534Z,99539.34
2018-12-21T10:59:01.762Z,99534.14
2018-12-21T11:01:32.508Z,99520.51
2018-12-21T11:04:02.951Z,99515.48
2018-12-21T11:06:33.147Z,99501.90
2018-12-21T11:09:04.135Z,99497.13
2018-12-21T11:11:34.670Z,99486.93
2018-12-21T11:14:05.277Z,99480.93
2018-12-21T11:16:35.544Z,99468.33
2018-12-21T11:19:06.221Z,99465.06
2018-12-21T11:21:37.079Z,99459.05
2018-12-21T11:24:07.920Z,99443.91
2018-12-21T11:26:38.135Z,99437.75
2018-12-21T11:29:09.796Z,99434.73
2018-12-21T11:31:40.084Z,99426.81
2018-12-21T11:34:11.464Z,99420.36
2018-12-21T11:36:42.154Z,99413.39
2018-12-21T11:39:12.401Z,99406.15
2018-12-21T11:41:43.306Z,99394.56
2018-12-21T11:44:13.975Z,99391.98
2018-12-21T11:46:45.313Z,99380.96
2018-12-21T11:49:16.089Z,99365.28
2018-12-21T11:51:46.262Z,99364.43
2018-12-21T11:54:17.277Z,99363.14
2018-12-21T11:56:48.687Z,99358.63
2018-12-21T11:59:18.880Z,99358.85
2018-12-21T12:01:50.321Z,99342.99
2018-12-21T12:04:20.923Z,99335.30
2018-12-21T12:06:51.086Z,99336.31
2018-12-21T12:09:21.432Z,99327.81
2018-12-21T12:11:51.574Z,99317.78
2018-12-21T12:14:21.848Z,99309.50
2018-12-21T12:16:52.113Z,99310.22
2018-12-21T12:19:23.225Z,99302.20
2018-12-21T12:21:53.899Z,99291.44
2018-12-21T12:24:24.563Z,99283.75
2018-12-21T12:26:55.287Z,99274.66
2018-12-21T12:29:25.467Z,99271.17
2018-12-21T12:31:56.396Z,99262.33
2018-12-21T12:34:27.499Z,99262.77
2018-12-21T12:36:58.209Z,99248.48
2018-12-21T12:39:28.899Z,99234.01
2018-12-21T12:42:03.765Z,99226.83
2018-12-21T12:44:33.980Z,99221.58
2018-12-21T12:47:04.690Z,99218.81
2018-12-21T12:49:35.348Z,99216.86
2018-12-21T12:52:05.542Z,99204.42
2018-12-21T12:54:36.117Z,99195.14
2018-12-21T12:57:06.269Z,99193.66
2018-12-21T12:59:37.217Z,99193.56
2018-12-21T13:02:07.611Z,99194.02
2018-12-21T13:04:37.769Z,99198.09
2018-12-21T13:07:09.208Z,99179.17
2018-12-21T13:09:39.855Z,99177.72
2018-12-21T13:12:09.935Z,99164.80
2018-12-21T13:14:41.909Z,99162.02
2018-12-21T13:17:12.405Z,99157.06
2018-12-21T13:19:43.347Z,99146.37
2018-12-21T13:22:14.091Z,99152.45
2018-12-21T13:24:45.663Z,99145.80
2018-12-21T13:27:15.841Z,99141.94
2018-12-21T13:29:46.988Z,99129.12
2018-12-21T13:32:17.224Z,99119.09
2018-12-21T13:34:48.258Z,99117.78
2018-12-21T13:37:18.563Z,99116.19
2018-12-21T13:39:49.177Z,99114.16
2018-12-21T13:42:19.265Z,99114.06
2018-12-21T13:44:49.536Z,99102.30
2018-12-21T13:47:19.758Z,99099.14
2018-12-21T13:49:50.387Z,99100.98
2018-12-21T13:52:20.518Z,99091.84
2018-12-21T13:54:51.242Z,99093.61
2018-12-21T13:57:22.005Z,99094.53
2018-12-21T13:59:53.141Z,99083.36
2018-12-21T14:02:23.804Z,99076.70
2018-12-21T14:04:53.800Z,99078.27
2018-12-21T14:07:24.535Z,99070.69
2018-12-21T14:09:54.866Z,99074.25
2018-12-21T14:12:26.624Z,99077.11
2018-12-21T14:14:56.890Z,99076.91
2018-12-21T14:17:27.067Z,99079.96
2018-12-21T14:19:57.149Z,99087.98
2018-12-21T14:22:27.898Z,99078.84
2018-12-21T14:24:57.987Z,99066.91
2018-12-21T14:27:29.362Z,99068.36
2018-12-21T14:29:59.538Z,99061.45
2018-12-21T14:32:30.993Z,99072.71
2018-12-21T14:35:02.855Z,99070.09
2018-12-21T14:37:32.908Z,99074.23
2018-12-21T14:40:02.993Z,99070.05
2018-12-21T14:42:33.210Z,99073.81
2018-12-21T14:45:03.363Z,99076.33
2018-12-21T14:47:34.211Z,99079.19
2018-12-21T14:50:05.446Z,99084.77
2018-12-21T14:52:35.650Z,99076.20
2018-12-21T14:55:06.722Z,99073.52
2018-12-21T14:57:36.868Z,99070.45
2018-12-21T15:00:12.778Z,99078.19
2018-12-21T15:02:43.690Z,99075.39
2018-12-21T15:05:13.777Z,99075.81
2018-12-21T15:07:44.056Z,99079.80
2018-12-21T15:10:14.215Z,99081.04
2018-12-21T15:12:44.947Z,99071.64
2018-12-21T15:15:15.314Z,99074.34
2018-12-21T15:17:45.451Z,99073.05
2018-12-21T15:20:15.650Z,99074.38
2018-12-21T15:22:46.294Z,99072.77
2018-12-21T15:25:16.888Z,99073.29
2018-12-21T15:27:47.564Z,99080.47
2018-12-21T15:30:17.824Z,99070.16
2018-12-21T15:32:49.093Z,99067.55
2018-12-21T15:35:19.162Z,99059.82
2018-12-21T15:37:49.183Z,99066.07
2018-12-21T15:40:19.262Z,99064.81
2018-12-21T15:42:49.445Z,99062.38
2018-12-21T15:45:20.344Z,99069.10
2018-12-21T15:47:51.190Z,99068.69
2018-12-21T15:50:21.408Z,99073.20
2018-12-21T15:52:51.860Z,99073.86
2018-12-21T15:55:23.370Z,99075.91
2018-12-21T15:57:54.214Z,99086.05
2018-12-21T16:00:24.867Z,99079.23
2018-12-21T16:02:57.013Z,99081.97
2018-12-21T16:05:28.011Z,99081.55
2018-12-21T16:07:59.229Z,99086.50
2018-12-21T16:10:29.781Z,99082.61
2018-12-21T16:13:01.036Z,99086.44
2018-12-21T16:15:31.624Z,99097.11
2018-12-21T16:18:01.965Z,99095.55
2018-12-21T16:20:33.186Z,99100.98
2018-12-21T16:23:05.192Z,99092.37
2018-12-21T16:25:35.196Z,99090.60
2018-12-21T16:28:06.010Z,99094.28
2018-12-21T16:30:36.175Z,99090.95
2018-12-21T16:33:06.233Z,99090.05
2018-12-21T16:35:36.447Z,99083.55
2018-12-21T16:38:06.738Z,99086.68
2018-12-21T16:40:37.506Z,99080.81
2018-12-21T16:43:09.152Z,99085.53
2018-12-21T16:45:39.940Z,99092.03
2018-12-21T16:48:11.121Z,99090.78
2018-12-21T16:50:41.961Z,99092.77
2018-12-21T16:53:12.156Z,99089.97
2018-12-21T16:55:42.861Z,99091.38
2018-12-21T16:58:14.010Z,99099.29
2018-12-21T17:00:44.014Z,99095.75
2018-12-21T17:03:15.701Z,99090.68
2018-12-21T17:05:46.109Z,99099.40
2018-12-21T17:08:16.832Z,99105.64
2018-12-21T17:10:47.891Z,99110.73
2018-12-21T17:13:17.988Z,99125.70
2018-12-21T17:15:49.442Z,99145.67
2018-12-21T17:18:21.339Z,99137.16
2018-12-21T17:20:51.524Z,99142.83
2018-12-21T17:23:22.796Z,99141.90
2018-12-21T17:25:52.938Z,99138.58
2018-12-21T17:28:23.341Z,99130.09
2018-12-21T17:30:53.369Z,99129.84
2018-12-21T17:33:23.456Z,99138.24
2018-12-21T17:35:53.620Z,99123.84
2018-12-21T17:38:23.786Z,99126.31
2018-12-21T17:40:54.526Z,99131.39
2018-12-21T17:43:25.942Z,99126.33
2018-12-21T17:45:56.897Z,99124.66
2018-12-21T17:48:27.106Z,99125.02
2018-12-21T17:50:58.047Z,99134.69
2018-12-21T17:53:28.993Z,99135.62
2018-12-21T17:55:58.990Z,99136.92
2018-12-21T17:58:29.205Z,99148.27
2018-12-21T18:01:00.521Z,99154.28
2018-12-21T18:03:44.499Z,99145.08
2018-12-21T18:06:14.570Z,99155.22
2018-12-21T18:08:45.339Z,99158.99
2018-12-21T18:11:16.643Z,99163.13
2018-12-21T18:13:47.329Z,99172.09
2018-12-21T18:16:17.627Z,99175.50
2018-12-21T18:18:48.341Z,99181.91
2018-12-21T18:21:18.497Z,99176.80
2018-12-21T18:23:49.972Z,99177.77
2018-12-21T18:26:22.574Z,99188.84
2018-12-21T18:28:53.585Z,99195.47
2018-12-21T18:31:33.876Z,99194.86
2018-12-21T18:34:07.763Z,99185.31
2018-12-21T18:36:38.551Z,99199.23
2018-12-21T18:39:08.947Z,99194.41
2018-12-21T18:41:39.773Z,99201.47
2018-12-21T18:44:11.529Z,99201.70
2018-12-21T18:46:41.776Z,99203.48
2018-12-21T18:49:13.913Z,99209.85
2018-12-21T18:51:44.694Z,99211.39
2018-12-21T18:54:15.953Z,99208.55
2018-12-21T18:56:58.974Z,99226.48
2018-12-21T18:59:29.614Z,99226.23
2018-12-21T19:02:00.439Z,99234.95
2018-12-21T19:04:30.740Z,99233.55
2018-12-21T19:07:00.910Z,99237.06
2018-12-21T19:09:31.730Z,99234.70
2018-12-21T19:12:02.726Z,99234.44
2018-12-21T19:14:34.692Z,99227.95
2018-12-21T19:17:05.503Z,99246.91
2018-12-21T19:19:35.680Z,99257.03
2018-12-21T19:22:05.987Z,99258.23
2018-12-21T19:24:36.231Z,99261.15
2018-12-21T19:27:07.051Z,99266.57
2018-12-21T19:29:37.958Z,99245.30
2018-12-21T19:32:08.047Z,99258.01
2018-12-21T19:34:38.386Z,99267.45
2018-12-21T19:37:08.602Z,99272.00
2018-12-21T19:39:38.820Z,99280.28
2018-12-21T19:42:09.052Z,99276.05
2018-12-21T19:44:39.166Z,99284.47
2018-12-21T19:47:09.408Z,99277.99
2018-12-21T19:49:39.400Z,99269.89
2018-12-21T19:52:10.426Z,99278.55
2018-12-21T19:54:40.702Z,99278.85
2018-12-21T19:57:13.896Z,99274.33
2018-12-21T19:59:44.496Z,99286.59
2018-12-21T20:02:15.455Z,99276.94
2018-12-21T20:04:45.653Z,99280.48
2018-12-21T20:07:15.806Z,99278.19
2018-12-21T20:09:46.143Z,99294.34
2018-12-21T20:12:17.009Z,99296.33
2018-12-21T20:14:47.464Z,99301.92
2018-12-21T20:17:18.053Z,99292.37
2018-12-21T20:19:48.824Z,99287.81
2018-12-21T20:22:18.898Z,99304.14
2018-12-21T20:24:48.968Z,99296.92
2018-12-21T20:27:20.196Z,99295.95
2018-12-21T20:29:51.654Z,99290.84
2018-12-21T20:32:22.089Z,99267.71
2018-12-21T20:34:53.163Z,99292.13
2018-12-21T20:37:23.245Z,99310.16
2018-12-21T20:39:53.556Z,99310.87
2018-12-21T20:42:23.680Z,99300.32
2018-12-21T20:44:54.402Z,99303.84
2018-12-21T20:47:24.567Z,99308.97
2018-12-21T20:49:55.323Z,99313.94
2018-12-21T20:52:27.124Z,99327.66
2018-12-21T20:54:57.997Z,99332.39
2018-12-21T20:57:30.726Z,99333.22
2018-12-21T21:00:01.277Z,99325.38
2018-12-21T21:02:32.039Z,99330.19
2018-12-21T21:05:02.304Z,99349.62
2018-12-21T21:07:33.557Z,99341.52
2018-12-21T21:10:03.890Z,99334.56
2018-12-21T21:12:34.009Z,99338.08
2018-12-21T21:15:04.248Z,99344.92
2018-12-21T21:17:34.156Z,99359.54
2018-12-21T21:20:05.220Z,99365.02
2018-12-21T21:22:35.938Z,99355.87
2018-12-21T21:25:06.982Z,99355.36
2018-12-21T21:27:38.261Z,99368.42
2018-12-21T21:30:14.169Z,99368.08
2018-12-21T21:32:44.327Z,99383.53
2018-12-21T21:35:15.256Z,99383.37
2018-12-21T21:37:46.685Z,99397.11
2018-12-21T21:40:19.312Z,99390.27
2018-12-21T21:42:57.241Z,99394.54
2018-12-21T21:45:22.243Z,99400.50
2018-12-21T21:47:53.347Z,99417.51
2018-12-21T21:50:23.603Z,99430.48
2018-12-21T21:52:54.576Z,99444.38
2018-12-21T21:55:25.662Z,99438.05
2018-12-21T21:57:56.185Z,99439.30
2018-12-21T22:00:27.516Z,99451.92
2018-12-21T22:02:58.409Z,99465.76
2018-12-21T22:05:29.733Z,99453.05
2018-12-21T22:07:59.885Z,99471.52
2018-12-21T22:10:29.890Z,99485.13
2018-12-21T22:13:00.010Z,99489.84
2018-12-21T22:15:30.104Z,99487.70
2018-12-21T22:18:00.758Z,99499.81
2018-12-21T22:20:32.292Z,99495.84
2018-12-21T22:23:02.905Z,99505.36
2018-12-21T22:25:33.148Z,99505.83
2018-12-21T22:28:03.286Z,99513.75
2018-12-21T22:30:33.507Z,99503.60
2018-12-21T22:33:04.198Z,99520.95
2018-12-21T22:35:34.499Z,99515.42
2018-12-21T22:38:04.869Z,99534.69
2018-12-21T22:40:36.455Z,99530.37
2018-12-21T22:43:07.192Z,99528.51
2018-12-21T22:45:37.750Z,99531.62
2018-12-21T22:48:08.035Z,99531.77
2018-12-21T22:50:38.997Z,99534.89
2018-12-21T22:53:09.094Z,99541.92
2018-12-21T22:55:39.379Z,99547.47
2018-12-21T22:58:09.388Z,99563.50
2018-12-21T23:00:39.888Z,99567.39
2018-12-21T23:03:10.766Z,99563.31
2018-12-21T23:05:42.343Z,99569.63
2018-12-21T23:08:13.019Z,99577.19
2018-12-21T23:10:44.000Z,99582.55
2018-12-21T23:13:15.005Z,99582.70
2018-12-21T23:15:45.274Z,99579.02
2018-12-21T23:18:15.845Z,99596.71
2018-12-21T23:20:46.647Z,99602.84
2018-12-21T23:23:17.675Z,99599.77
2018-12-21T23:25:48.345Z,99598.97
2018-12-21T23:28:18.450Z,99608.39
2018-12-21T23:30:48.625Z,99613.23
2018-12-21T23:33:19.930Z,99612.27
2018-12-21T23:35:50.331Z,99626.48
2018-12-21T23:38:21.070Z,99626.72
2018-12-21T23:40:51.146Z,99634.44
2018-12-21T23:43:21.263Z,99640.49
2018-12-21T23:45:51.473Z,99640.31
2018-12-21T23:48:21.509Z,99642.98
2018-12-21T23:50:51.708Z,99649.25
2018-12-21T23:53:21.849Z,99658.37
2018-12-21T23:55:52.342Z,99663.28
2018-12-21T23:58:23.509Z,99675.27
